Jump to content

Parsley

Spotter
  • Content Count

    4,231
  • Joined

  • Last visited

  • Days Won

    27

Parsley last won the day on November 2

Parsley had the most liked content!

Community Reputation

2,689 Excellent

About Parsley

  • Rank
    Skywarn #MTPA-044
  • Birthday 08/16/1978

Profile Information

  • Gender
    Male
  • Location:
    Graterford, PA

Recent Profile Visitors

2,035 profile views
  1. Parsley

    Temps/Obs/Boring Weather Discussion

    0.88” yard is “done”. Need a freeze up at this point.
  2. Parsley

    First Flakes

    Nope that’s my iphone out my kitchen window. new weather station and web camera hopefully by this time next year.
  3. Parsley

    First Flakes

    Since this is likely my last year here in Graterford with fence obs. I must start the archive... Also, still have some coneflowers blooming in the perennial garden...til tonight.
  4. Parsley

    Temps/Obs/Boring Weather Discussion

    Flurrieeeeeeeeeeeees!
  5. Parsley

    Temps/Obs/Boring Weather Discussion

    Yard is drowning. Quickly climbing over 0.50”
  6. Parsley

    Temps/Obs/Boring Weather Discussion

    Congrats Mitch on the snow! KBGM 091732Z 14011KT 1/2SM SN FG FEW009 OVC013 00/M01 A3008 RMK AO2 TWR VIS 3 SNB1654 P0001 T00001011KBGM 091721Z 14012KT 3/4SM -SN VV019 01/M02 A3009 RMK AO2 TWR VIS 3 SNB1654 P0000 T00111017KBGM 091715Z 13011KT 2SM -SN OVC026 02/M02 A3009 RMK AO2 TWR VIS 3 SNB1654 P0000 T00171022KBGM 091653Z 14011KT 3SM BKN045 OVC060 01/M02 A3011 RMK AO2 SFC VIS 8 SNB11E51 SLP211 P0000 T00111017KBGM 091642Z 14010KT 3SM -SN BKN036 OVC060 01/M02 A3011 RMK AO2 SFC VIS 5 SNB11 P0000 T00111017KBGM 091632Z 15010G19KT 3SM -SN BR BKN028 OVC060 01/M02 A3012 RMK AO2 SNB11 P0000 T00061017KBGM 091618Z 15016G22KT 1 3/4SM -SN BKN028 OVC055 01/M02 A3011 RMK AO2 TWR VIS 3 SNB11 P0000 T00111022KBGM 091553Z 13011KT 10SM BKN044 BKN055 OVC070 01/M03 A3014 RMK AO2 SLP222 T00111028KBGM 091453Z 13008KT 10SM FEW055 BKN075 OVC090 01/M02 A3021 RMK AO2 PRESFR SLP245 T00111022 55010
  7. Parsley

    Eagles adding players for playoff push?

    As a New Yorker, one thing I'm super jealous of as a sports fan is how Philly has one team and basically gets full support as a result. I know other cities are big enough for multiple teams but it really tarnishes the fun of fandom. Mets and Yankees fans dislike each other, Rangers and Islanders fans hate each other, Giants and Jets fans dislike each other, etc. So when a city (like NY) wins a championship a solid percentage of the population isn't even happy. That sucks.
  8. Parsley

    Eagles adding players for playoff push?

    Sure, the NHL (which is my favorite sport to watch) is the weakest draw of the main sports televised and that's why the merch sold and fanbase in terms of #'s is less in general . I'm just saying from a loyalty standpoint in my time here I feel like the Eagles and Flyers fans stand above Phillies fans.
  9. Parsley

    Meteorological Fall Banter Thread

    That’s what happens when I win every contest.
  10. Parsley

    Eagles adding players for playoff push?

    As an unbiased (AHOLE New Yorker) outsider living here since 04’ you are right. Just like NY will always be a baseball (Yankees, of course) town. Sure you had your “Phillies Fever” the few years around their championship but my experience living here has been Eagles first and honestly a pretty healthy-dedicated love for Flyers although the NHL bores the average consumer much like MLB is starting to.
  11. Parsley

    Temps/Obs/Boring Weather Discussion

    Beautiful day. Finally.
  12. Parsley

    Temps/Obs/Boring Weather Discussion

    Oh look, another day with underperforming sunshine.
×